arbusers.com alexa rank chart, arbusers.com alexa rank daily changes

arbusers.com alexa rank chart, arbusers.com alexa rank daily changes

arbusers.com
Actual rank:
285 427

RANK HISTORY

Date Rank Diff
2017/02/27 285 427 +6 298
2017/02/26 279 129 -5 354
2017/02/25 284 483 -629
2017/02/24 285 112 -3 875
2017/02/23 288 987 +7 922
2017/02/22 281 065 +3 827
2017/02/21 277 238 +1 297
2017/02/20 275 941 +982
2017/02/19 274 959 -5 128
2017/02/18 280 087 +1 115
2017/02/17 278 972 -1 683
2017/02/16 280 655 +2 366
2017/02/15 278 289 +2 802
2017/02/14 275 487 +384
2017/02/13 275 103 -1 472
2017/02/12 276 575 -14 306
2017/02/11 290 881 -472
2017/02/10 291 353 +7 092
2017/02/09 284 261 +2 889
2017/02/08 281 372 -70
2017/02/07 281 442 -3 183
2017/02/06 284 625 -5 534
2017/02/05 290 159 -16 268
2017/02/04 306 427 -2 887
2017/02/03 309 314 -9 912
2017/02/02 319 226 -5 251
2017/02/01 324 477 -2 043
2017/01/31 326 520 +14 622
2017/01/30 311 898 +2 280
2017/01/29 309 618 -1 341
2017/01/28 310 959 +798
2017/01/27 310 161 -9 612
2017/01/26 319 773 +3 026
2017/01/25 316 747 +5 327
2017/01/24 311 420 +8 094
2017/01/23 303 326 -9 761
2017/01/22 313 087 -936
2017/01/21 314 023 -2 534
2017/01/20 316 557 +8 906
2017/01/19 307 651 +7 071
2017/01/18 300 580 -5 151
2017/01/17 305 731 +4 929
2017/01/16 300 802 +2 180
2017/01/15 298 622 -5 781
2017/01/14 304 403 -1 762
2017/01/13 306 165 +1 258
2017/01/12 304 907 -1 376
2017/01/11 306 283 +4 826
2017/01/10 301 457 -12 958
2017/01/09 314 415 -10 999
2017/01/08 325 414 +2 921
2017/01/07 322 493 -2 052
2017/01/06 324 545 +6 380
2017/01/05 318 165 +9 823
2017/01/04 308 342 +7 113
2017/01/03 301 229 +2 141
2017/01/02 299 088 -1 081
2017/01/01 300 169 +2 792
2016/12/31 297 377 -14 289
2016/12/30 311 666 +1 433
2016/12/29 310 233

WIDGET FOR YOUR SITE

DOMAINS WITH THE NEAREST RANK

Domain Rank
roda.hr 285 422
shebeach.co.kr 285 423
comparebroadband.com.au 285 424
gabonactu.com 285 425
cinemas4u.us 285 426
arbusers.com 285 427
prleap.com 285 428
decent.ch 285 429
kangghani.com 285 430
howtodo.space 285 431
vroma.org 285 432

DOMAINS WITH THE NEAREST RANK BY TLD .com

Domain Rank
feministing.com 285 409
ktvxg.com 285 412
powermetercity.com 285 414
bokf.com 285 419
gabonactu.com 285 425
arbusers.com 285 427
prleap.com 285 428
kangghani.com 285 430
fishingreminder.com 285 435
hornypleasure.com 285 436
giztab.com 285 440